sensor_id;sensor_type;location;lat;lon;timestamp;pressure;altitude;pressure_sealevel;temperature
24201;BMP280;2801;50.972;7.856;2023-08-17T00:02:16;97776.41;;;21.05
24201;BMP280;2801;50.972;7.856;2023-08-17T00:04:43;97786.91;;;21.03
24201;BMP280;2801;50.972;7.856;2023-08-17T00:07:10;97790.41;;;21.00
24201;BMP280;2801;50.972;7.856;2023-08-17T00:09:36;97796.63;;;21.00
24201;BMP280;2801;50.972;7.856;2023-08-17T00:12:04;97798.19;;;21.01
24201;BMP280;2801;50.972;7.856;2023-08-17T00:14:32;97784.97;;;21.00
24201;BMP280;2801;50.972;7.856;2023-08-17T00:16:59;97791.56;;;20.99
24201;BMP280;2801;50.972;7.856;2023-08-17T00:19:26;97784.97;;;21.00
24201;BMP280;2801;50.972;7.856;2023-08-17T00:21:54;97781.44;;;20.99
24201;BMP280;2801;50.972;7.856;2023-08-17T00:24:21;97790.00;;;20.98
24201;BMP280;2801;50.972;7.856;2023-08-17T00:26:48;97775.59;;;20.94
24201;BMP280;2801;50.972;7.856;2023-08-17T00:29:15;97790.69;;;20.88
24201;BMP280;2801;50.972;7.856;2023-08-17T00:31:43;97795.34;;;20.80
24201;BMP280;2801;50.972;7.856;2023-08-17T00:34:11;97799.19;;;20.76
24201;BMP280;2801;50.972;7.856;2023-08-17T00:36:37;97792.94;;;20.68
24201;BMP280;2801;50.972;7.856;2023-08-17T00:39:04;97794.44;;;20.62
24201;BMP280;2801;50.972;7.856;2023-08-17T00:41:31;97796.38;;;20.55
24201;BMP280;2801;50.972;7.856;2023-08-17T00:43:59;97792.00;;;20.47
24201;BMP280;2801;50.972;7.856;2023-08-17T00:46:27;97800.16;;;20.40
24201;BMP280;2801;50.972;7.856;2023-08-17T00:48:55;97793.84;;;20.32
24201;BMP280;2801;50.972;7.856;2023-08-17T00:51:25;97800.41;;;20.24
24201;BMP280;2801;50.972;7.856;2023-08-17T00:53:59;97791.00;;;20.11
24201;BMP280;2801;50.972;7.856;2023-08-17T00:56:27;97791.59;;;19.94
24201;BMP280;2801;50.972;7.856;2023-08-17T00:58:55;97795.25;;;19.69
24201;BMP280;2801;50.972;7.856;2023-08-17T01:01:23;97796.56;;;19.49
24201;BMP280;2801;50.972;7.856;2023-08-17T01:03:50;97799.59;;;19.40
24201;BMP280;2801;50.972;7.856;2023-08-17T01:06:18;97799.88;;;19.32
24201;BMP280;2801;50.972;7.856;2023-08-17T01:08:46;97806.38;;;19.24
24201;BMP280;2801;50.972;7.856;2023-08-17T01:11:38;97811.97;;;19.05
24201;BMP280;2801;50.972;7.856;2023-08-17T01:14:37;97809.84;;;18.91
24201;BMP280;2801;50.972;7.856;2023-08-17T01:17:26;97809.69;;;18.81
24201;BMP280;2801;50.972;7.856;2023-08-17T01:19:57;97807.78;;;18.85
24201;BMP280;2801;50.972;7.856;2023-08-17T01:22:26;97813.94;;;18.78
24201;BMP280;2801;50.972;7.856;2023-08-17T01:24:56;97812.69;;;18.72
24201;BMP280;2801;50.972;7.856;2023-08-17T01:27:33;97809.03;;;18.61
24201;BMP280;2801;50.972;7.856;2023-08-17T01:30:00;97812.13;;;18.60
24201;BMP280;2801;50.972;7.856;2023-08-17T01:32:37;97809.41;;;18.60
24201;BMP280;2801;50.972;7.856;2023-08-17T01:35:50;97807.09;;;18.62
24201;BMP280;2801;50.972;7.856;2023-08-17T01:38:22;97810.97;;;18.61
24201;BMP280;2801;50.972;7.856;2023-08-17T01:40:51;97806.50;;;18.49
24201;BMP280;2801;50.972;7.856;2023-08-17T01:43:20;97812.28;;;18.44
24201;BMP280;2801;50.972;7.856;2023-08-17T01:45:48;97810.97;;;18.35
24201;BMP280;2801;50.972;7.856;2023-08-17T01:48:15;97808.94;;;18.32
24201;BMP280;2801;50.972;7.856;2023-08-17T01:50:42;97805.81;;;18.30
24201;BMP280;2801;50.972;7.856;2023-08-17T01:53:09;97801.84;;;18.23
24201;BMP280;2801;50.972;7.856;2023-08-17T01:55:36;97809.88;;;18.16
24201;BMP280;2801;50.972;7.856;2023-08-17T01:58:04;97807.91;;;18.13
24201;BMP280;2801;50.972;7.856;2023-08-17T02:00:31;97802.09;;;18.15
24201;BMP280;2801;50.972;7.856;2023-08-17T02:02:57;97801.00;;;18.19
24201;BMP280;2801;50.972;7.856;2023-08-17T02:05:24;97793.78;;;18.27
24201;BMP280;2801;50.972;7.856;2023-08-17T02:07:55;97793.59;;;18.39
24201;BMP280;2801;50.972;7.856;2023-08-17T02:10:21;97797.66;;;18.52
24201;BMP280;2801;50.972;7.856;2023-08-17T02:12:48;97799.38;;;18.64
24201;BMP280;2801;50.972;7.856;2023-08-17T02:15:16;97799.50;;;18.74
24201;BMP280;2801;50.972;7.856;2023-08-17T02:17:43;97791.47;;;18.81
24201;BMP280;2801;50.972;7.856;2023-08-17T02:20:10;97790.75;;;18.84
24201;BMP280;2801;50.972;7.856;2023-08-17T02:22:37;97783.44;;;18.92
24201;BMP280;2801;50.972;7.856;2023-08-17T02:25:05;97772.63;;;18.95
24201;BMP280;2801;50.972;7.856;2023-08-17T02:27:32;97769.63;;;19.04
24201;BMP280;2801;50.972;7.856;2023-08-17T02:29:59;97768.50;;;19.08
24201;BMP280;2801;50.972;7.856;2023-08-17T02:32:26;97773.25;;;19.15
24201;BMP280;2801;50.972;7.856;2023-08-17T02:34:53;97770.97;;;19.20
24201;BMP280;2801;50.972;7.856;2023-08-17T02:37:20;97759.38;;;19.23
24201;BMP280;2801;50.972;7.856;2023-08-17T02:39:47;97769.56;;;19.30
24201;BMP280;2801;50.972;7.856;2023-08-17T02:42:14;97768.44;;;19.31
24201;BMP280;2801;50.972;7.856;2023-08-17T02:44:41;97754.84;;;19.34
24201;BMP280;2801;50.972;7.856;2023-08-17T02:47:08;97756.09;;;19.40
24201;BMP280;2801;50.972;7.856;2023-08-17T02:49:34;97752.66;;;19.47
24201;BMP280;2801;50.972;7.856;2023-08-17T02:52:02;97749.59;;;19.52
24201;BMP280;2801;50.972;7.856;2023-08-17T02:54:29;97739.91;;;19.54
24201;BMP280;2801;50.972;7.856;2023-08-17T02:56:59;97743.44;;;19.58
24201;BMP280;2801;50.972;7.856;2023-08-17T02:59:26;97742.69;;;19.61
24201;BMP280;2801;50.972;7.856;2023-08-17T03:01:53;97745.09;;;19.66
24201;BMP280;2801;50.972;7.856;2023-08-17T03:04:20;97735.41;;;19.69
24201;BMP280;2801;50.972;7.856;2023-08-17T03:06:47;97734.66;;;19.75
24201;BMP280;2801;50.972;7.856;2023-08-17T03:09:14;97737.38;;;19.75
24201;BMP280;2801;50.972;7.856;2023-08-17T03:11:41;97735.84;;;19.78
24201;BMP280;2801;50.972;7.856;2023-08-17T03:14:08;97729.63;;;19.77
24201;BMP280;2801;50.972;7.856;2023-08-17T03:16:35;97739.38;;;19.78
24201;BMP280;2801;50.972;7.856;2023-08-17T03:19:03;97733.56;;;19.80
24201;BMP280;2801;50.972;7.856;2023-08-17T03:21:30;97723.78;;;19.75
24201;BMP280;2801;50.972;7.856;2023-08-17T03:23:57;97730.41;;;19.78
24201;BMP280;2801;50.972;7.856;2023-08-17T03:26:24;97730.78;;;19.73
24201;BMP280;2801;50.972;7.856;2023-08-17T03:28:51;97726.50;;;19.75
24201;BMP280;2801;50.972;7.856;2023-08-17T03:31:20;97736.22;;;19.76
24201;BMP280;2801;50.972;7.856;2023-08-17T03:33:48;97731.56;;;19.77
24201;BMP280;2801;50.972;7.856;2023-08-17T03:36:15;97731.16;;;19.75
24201;BMP280;2801;50.972;7.856;2023-08-17T03:38:42;97733.88;;;19.75
24201;BMP280;2801;50.972;7.856;2023-08-17T03:41:10;97733.47;;;19.73
24201;BMP280;2801;50.972;7.856;2023-08-17T03:43:37;97742.41;;;19.73
24201;BMP280;2801;50.972;7.856;2023-08-17T03:46:04;97743.22;;;19.74
24201;BMP280;2801;50.972;7.856;2023-08-17T03:48:32;97743.94;;;19.71
24201;BMP280;2801;50.972;7.856;2023-08-17T03:50:59;97739.69;;;19.73
24201;BMP280;2801;50.972;7.856;2023-08-17T03:53:28;97738.13;;;19.72
24201;BMP280;2801;50.972;7.856;2023-08-17T03:55:55;97741.66;;;19.73
24201;BMP280;2801;50.972;7.856;2023-08-17T03:58:21;97747.47;;;19.71
24201;BMP280;2801;50.972;7.856;2023-08-17T04:00:50;97748.88;;;19.58
24201;BMP280;2801;50.972;7.856;2023-08-17T04:03:18;97748.84;;;19.55
24201;BMP280;2801;50.972;7.856;2023-08-17T04:05:45;97751.06;;;19.42
24201;BMP280;2801;50.972;7.856;2023-08-17T04:08:12;97757.22;;;19.39
24201;BMP280;2801;50.972;7.856;2023-08-17T04:10:40;97749.84;;;19.36
24201;BMP280;2801;50.972;7.856;2023-08-17T04:13:06;97766.84;;;19.30
24201;BMP280;2801;50.972;7.856;2023-08-17T04:15:34;97761.78;;;19.28
24201;BMP280;2801;50.972;7.856;2023-08-17T04:18:01;97769.94;;;19.28
24201;BMP280;2801;50.972;7.856;2023-08-17T04:20:28;97762.16;;;19.27
24201;BMP280;2801;50.972;7.856;2023-08-17T04:22:55;97764.09;;;19.26
24201;BMP280;2801;50.972;7.856;2023-08-17T04:25:22;97759.03;;;19.25
24201;BMP280;2801;50.972;7.856;2023-08-17T04:27:48;97769.06;;;19.21
24201;BMP280;2801;50.972;7.856;2023-08-17T04:30:15;97762.81;;;19.20
24201;BMP280;2801;50.972;7.856;2023-08-17T04:32:42;97771.03;;;19.24
24201;BMP280;2801;50.972;7.856;2023-08-17T04:35:09;97775.69;;;19.23
24201;BMP280;2801;50.972;7.856;2023-08-17T04:37:37;97790.00;;;19.20
24201;BMP280;2801;50.972;7.856;2023-08-17T04:40:05;97790.78;;;19.21
24201;BMP280;2801;50.972;7.856;2023-08-17T04:42:32;97789.25;;;19.20
24201;BMP280;2801;50.972;7.856;2023-08-17T04:44:59;97795.88;;;19.22
24201;BMP280;2801;50.972;7.856;2023-08-17T04:47:26;97787.66;;;19.19
24201;BMP280;2801;50.972;7.856;2023-08-17T04:49:54;97793.94;;;19.23
24201;BMP280;2801;50.972;7.856;2023-08-17T04:52:20;97792.06;;;19.27
24201;BMP280;2801;50.972;7.856;2023-08-17T04:54:47;97802.16;;;19.26
24201;BMP280;2801;50.972;7.856;2023-08-17T04:57:14;97807.59;;;19.26
24201;BMP280;2801;50.972;7.856;2023-08-17T04:59:41;97802.16;;;19.26
24201;BMP280;2801;50.972;7.856;2023-08-17T05:02:08;97814.22;;;19.29
24201;BMP280;2801;50.972;7.856;2023-08-17T05:04:35;97809.19;;;19.31
24201;BMP280;2801;50.972;7.856;2023-08-17T05:07:02;97810.41;;;19.33
24201;BMP280;2801;50.972;7.856;2023-08-17T05:09:29;97806.50;;;19.34
24201;BMP280;2801;50.972;7.856;2023-08-17T05:11:57;97798.81;;;19.40
24201;BMP280;2801;50.972;7.856;2023-08-17T05:14:24;97804.25;;;19.40
24201;BMP280;2801;50.972;7.856;2023-08-17T05:16:51;97803.06;;;19.37
24201;BMP280;2801;50.972;7.856;2023-08-17T05:19:18;97801.53;;;19.40
24201;BMP280;2801;50.972;7.856;2023-08-17T05:21:45;97807.78;;;19.44
24201;BMP280;2801;50.972;7.856;2023-08-17T05:24:12;97810.50;;;19.44
24201;BMP280;2801;50.972;7.856;2023-08-17T05:26:39;97803.50;;;19.43
24201;BMP280;2801;50.972;7.856;2023-08-17T05:29:05;97808.22;;;19.46
24201;BMP280;2801;50.972;7.856;2023-08-17T05:31:32;97806.59;;;19.41
24201;BMP280;2801;50.972;7.856;2023-08-17T05:33:59;97807.38;;;19.42
24201;BMP280;2801;50.972;7.856;2023-08-17T05:36:26;97815.13;;;19.40
24201;BMP280;2801;50.972;7.856;2023-08-17T05:38:54;97815.13;;;19.40
24201;BMP280;2801;50.972;7.856;2023-08-17T05:41:21;97826.00;;;19.40
24201;BMP280;2801;50.972;7.856;2023-08-17T05:43:50;97825.25;;;19.43
24201;BMP280;2801;50.972;7.856;2023-08-17T05:46:17;97829.50;;;19.40
24201;BMP280;2801;50.972;7.856;2023-08-17T05:48:44;97830.66;;;19.39
24201;BMP280;2801;50.972;7.856;2023-08-17T05:51:11;97831.84;;;19.42
24201;BMP280;2801;50.972;7.856;2023-08-17T05:53:38;97827.97;;;19.43
24201;BMP280;2801;50.972;7.856;2023-08-17T05:56:04;97826.41;;;19.42
24201;BMP280;2801;50.972;7.856;2023-08-17T05:58:31;97825.66;;;19.45
24201;BMP280;2801;50.972;7.856;2023-08-17T06:01:10;97825.66;;;19.45
24201;BMP280;2801;50.972;7.856;2023-08-17T06:03:38;97828.81;;;19.47
24201;BMP280;2801;50.972;7.856;2023-08-17T06:06:05;97826.03;;;19.43
24201;BMP280;2801;50.972;7.856;2023-08-17T06:08:33;97831.16;;;19.48
24201;BMP280;2801;50.972;7.856;2023-08-17T06:11:00;97835.44;;;19.49
24201;BMP280;2801;50.972;7.856;2023-08-17T06:13:27;97833.50;;;19.50
24201;BMP280;2801;50.972;7.856;2023-08-17T06:15:56;97830.00;;;19.53
24201;BMP280;2801;50.972;7.856;2023-08-17T06:18:24;97837.06;;;19.57
24201;BMP280;2801;50.972;7.856;2023-08-17T06:20:51;97834.41;;;19.61
24201;BMP280;2801;50.972;7.856;2023-08-17T06:23:20;97822.72;;;19.57
24201;BMP280;2801;50.972;7.856;2023-08-17T06:25:47;97826.28;;;19.64
24201;BMP280;2801;50.972;7.856;2023-08-17T06:28:14;97826.34;;;19.71
24201;BMP280;2801;50.972;7.856;2023-08-17T06:30:41;97826.38;;;19.75
24201;BMP280;2801;50.972;7.856;2023-08-17T06:33:08;97824.09;;;19.80
24201;BMP280;2801;50.972;7.856;2023-08-17T06:35:35;97827.69;;;19.88
24201;BMP280;2801;50.972;7.856;2023-08-17T06:38:02;97829.66;;;19.91
24201;BMP280;2801;50.972;7.856;2023-08-17T06:40:29;97827.75;;;19.95
24201;BMP280;2801;50.972;7.856;2023-08-17T06:42:56;97826.53;;;19.92
24201;BMP280;2801;50.972;7.856;2023-08-17T06:45:23;97820.69;;;19.90
24201;BMP280;2801;50.972;7.856;2023-08-17T06:47:50;97827.78;;;20.02
24201;BMP280;2801;50.972;7.856;2023-08-17T06:50:18;97819.63;;;20.02
24201;BMP280;2801;50.972;7.856;2023-08-17T06:52:45;97830.94;;;20.04
24201;BMP280;2801;50.972;7.856;2023-08-17T06:55:11;97826.75;;;20.10
24201;BMP280;2801;50.972;7.856;2023-08-17T06:57:38;97817.84;;;20.16
24201;BMP280;2801;50.972;7.856;2023-08-17T07:00:06;97815.94;;;20.20
24201;BMP280;2801;50.972;7.856;2023-08-17T07:02:34;97825.31;;;20.26
24201;BMP280;2801;50.972;7.856;2023-08-17T07:05:18;97830.44;;;20.35
24201;BMP280;2801;50.972;7.856;2023-08-17T07:07:45;97827.38;;;20.40
24201;BMP280;2801;50.972;7.856;2023-08-17T07:10:12;97827.41;;;20.47
24201;BMP280;2801;50.972;7.856;2023-08-17T07:12:39;97830.56;;;20.52
24201;BMP280;2801;50.972;7.856;2023-08-17T07:15:07;97825.53;;;20.54
24201;BMP280;2801;50.972;7.856;2023-08-17T07:17:35;97830.22;;;20.57
24201;BMP280;2801;50.972;7.856;2023-08-17T07:20:05;97831.78;;;20.58
24201;BMP280;2801;50.972;7.856;2023-08-17T07:22:42;97834.56;;;20.69
24201;BMP280;2801;50.972;7.856;2023-08-17T07:25:09;97836.53;;;20.72
24201;BMP280;2801;50.972;7.856;2023-08-17T07:27:37;97835.81;;;20.78
24201;BMP280;2801;50.972;7.856;2023-08-17T07:30:04;97836.97;;;20.81
24201;BMP280;2801;50.972;7.856;2023-08-17T07:32:32;97838.16;;;20.80
24201;BMP280;2801;50.972;7.856;2023-08-17T07:35:00;97842.84;;;20.86
24201;BMP280;2801;50.972;7.856;2023-08-17T07:37:27;97838.59;;;20.89
24201;BMP280;2801;50.972;7.856;2023-08-17T07:40:00;97836.28;;;20.91
24201;BMP280;2801;50.972;7.856;2023-08-17T07:42:26;97837.06;;;20.91
24201;BMP280;2801;50.972;7.856;2023-08-17T07:44:54;97839.06;;;20.98
24201;BMP280;2801;50.972;7.856;2023-08-17T07:47:21;97844.56;;;21.05
24201;BMP280;2801;50.972;7.856;2023-08-17T07:49:48;97844.97;;;21.10
24201;BMP280;2801;50.972;7.856;2023-08-17T07:52:15;97846.16;;;21.09
24201;BMP280;2801;50.972;7.856;2023-08-17T07:54:43;97852.38;;;21.10
24201;BMP280;2801;50.972;7.856;2023-08-17T07:57:10;97839.91;;;21.12
24201;BMP280;2801;50.972;7.856;2023-08-17T07:59:37;97841.91;;;21.19
24201;BMP280;2801;50.972;7.856;2023-08-17T08:02:04;97846.97;;;21.20
24201;BMP280;2801;50.972;7.856;2023-08-17T08:04:31;97848.16;;;21.26
24201;BMP280;2801;50.972;7.856;2023-08-17T08:06:58;97847.78;;;21.31
24201;BMP280;2801;50.972;7.856;2023-08-17T08:09:25;97847.41;;;21.33
24201;BMP280;2801;50.972;7.856;2023-08-17T08:11:52;97861.06;;;21.36
24201;BMP280;2801;50.972;7.856;2023-08-17T08:14:19;97850.16;;;21.36
24201;BMP280;2801;50.972;7.856;2023-08-17T08:16:46;97857.97;;;21.41
24201;BMP280;2801;50.972;7.856;2023-08-17T08:19:14;97866.16;;;21.45
24201;BMP280;2801;50.972;7.856;2023-08-17T08:21:41;97870.44;;;21.39
24201;BMP280;2801;50.972;7.856;2023-08-17T08:24:08;97861.88;;;21.44
24201;BMP280;2801;50.972;7.856;2023-08-17T08:26:44;97868.88;;;21.45
24201;BMP280;2801;50.972;7.856;2023-08-17T08:29:10;97857.25;;;21.55
24201;BMP280;2801;50.972;7.856;2023-08-17T08:31:37;97854.91;;;21.57
24201;BMP280;2801;50.972;7.856;2023-08-17T08:34:04;97854.13;;;21.57
24201;BMP280;2801;50.972;7.856;2023-08-17T08:36:31;97851.41;;;21.60
24201;BMP280;2801;50.972;7.856;2023-08-17T08:38:58;97856.09;;;21.63
24201;BMP280;2801;50.972;7.856;2023-08-17T08:41:26;97853.38;;;21.67
24201;BMP280;2801;50.972;7.856;2023-08-17T08:43:54;97858.06;;;21.66
24201;BMP280;2801;50.972;7.856;2023-08-17T08:46:25;97853.38;;;21.70
24201;BMP280;2801;50.972;7.856;2023-08-17T08:48:54;97844.84;;;21.72
24201;BMP280;2801;50.972;7.856;2023-08-17T08:51:27;97844.06;;;21.78
24201;BMP280;2801;50.972;7.856;2023-08-17T08:54:01;97847.59;;;21.82
24201;BMP280;2801;50.972;7.856;2023-08-17T08:56:35;97835.53;;;21.83
24201;BMP280;2801;50.972;7.856;2023-08-17T08:59:05;97843.72;;;21.90
24201;BMP280;2801;50.972;7.856;2023-08-17T09:01:33;97833.56;;;21.91
24201;BMP280;2801;50.972;7.856;2023-08-17T09:04:01;97842.16;;;21.89
24201;BMP280;2801;50.972;7.856;2023-08-17T09:06:30;97840.19;;;21.86
24201;BMP280;2801;50.972;7.856;2023-08-17T09:08:58;97848.78;;;21.78
24201;BMP280;2801;50.972;7.856;2023-08-17T09:11:28;97848.72;;;21.71
24201;BMP280;2801;50.972;7.856;2023-08-17T09:13:55;97849.06;;;21.66
24201;BMP280;2801;50.972;7.856;2023-08-17T09:16:22;97847.91;;;21.63
24201;BMP280;2801;50.972;7.856;2023-08-17T09:18:53;97842.84;;;21.58
24201;BMP280;2801;50.972;7.856;2023-08-17T09:21:25;97847.50;;;21.58
24201;BMP280;2801;50.972;7.856;2023-08-17T09:23:54;97847.13;;;21.56
24201;BMP280;2801;50.972;7.856;2023-08-17T09:26:24;97847.88;;;21.56
24201;BMP280;2801;50.972;7.856;2023-08-17T09:28:52;97843.63;;;21.59
24201;BMP280;2801;50.972;7.856;2023-08-17T09:31:21;97841.31;;;21.64
24201;BMP280;2801;50.972;7.856;2023-08-17T09:33:52;97843.63;;;21.62
24201;BMP280;2801;50.972;7.856;2023-08-17T09:36:23;97842.44;;;21.63
24201;BMP280;2801;50.972;7.856;2023-08-17T09:38:53;97840.91;;;21.69
24201;BMP280;2801;50.972;7.856;2023-08-17T09:41:21;97840.97;;;21.80
24201;BMP280;2801;50.972;7.856;2023-08-17T09:43:55;97834.75;;;21.90
24201;BMP280;2801;50.972;7.856;2023-08-17T09:46:22;97828.94;;;21.98
24201;BMP280;2801;50.972;7.856;2023-08-17T09:48:51;97827.75;;;22.06
24201;BMP280;2801;50.972;7.856;2023-08-17T09:51:17;97826.59;;;22.14
24201;BMP280;2801;50.972;7.856;2023-08-17T09:53:44;97829.31;;;22.21
24201;BMP280;2801;50.972;7.856;2023-08-17T09:56:12;97831.66;;;22.33
24201;BMP280;2801;50.972;7.856;2023-08-17T09:58:42;97835.16;;;22.34
24201;BMP280;2801;50.972;7.856;2023-08-17T10:01:09;97826.56;;;22.35
24201;BMP280;2801;50.972;7.856;2023-08-17T10:03:43;97809.81;;;22.40
24201;BMP280;2801;50.972;7.856;2023-08-17T10:06:13;97807.06;;;22.54
24201;BMP280;2801;50.972;7.856;2023-08-17T10:08:47;97815.28;;;22.61
24201;BMP280;2801;50.972;7.856;2023-08-17T10:11:19;97821.13;;;22.70
24201;BMP280;2801;50.972;7.856;2023-08-17T10:13:58;97817.59;;;22.77
24201;BMP280;2801;50.972;7.856;2023-08-17T10:16:37;97828.50;;;22.91
24201;BMP280;2801;50.972;7.856;2023-08-17T10:19:34;97824.19;;;23.00
24201;BMP280;2801;50.972;7.856;2023-08-17T10:22:16;97828.44;;;23.15
24201;BMP280;2801;50.972;7.856;2023-08-17T10:24:46;97825.28;;;23.27
24201;BMP280;2801;50.972;7.856;2023-08-17T10:27:13;97831.09;;;23.36
24201;BMP280;2801;50.972;7.856;2023-08-17T10:29:43;97826.78;;;23.39
24201;BMP280;2801;50.972;7.856;2023-08-17T10:32:11;97827.19;;;23.41
24201;BMP280;2801;50.972;7.856;2023-08-17T10:34:43;97822.09;;;23.39
24201;BMP280;2801;50.972;7.856;2023-08-17T10:37:12;97821.31;;;23.39
24201;BMP280;2801;50.972;7.856;2023-08-17T10:39:46;97816.25;;;23.34
24201;BMP280;2801;50.972;7.856;2023-08-17T10:42:14;97808.03;;;23.41
24201;BMP280;2801;50.972;7.856;2023-08-17T10:44:48;97810.72;;;23.48
24201;BMP280;2801;50.972;7.856;2023-08-17T10:47:28;97811.06;;;23.57
24201;BMP280;2801;50.972;7.856;2023-08-17T10:50:05;97816.91;;;23.66
24201;BMP280;2801;50.972;7.856;2023-08-17T10:52:36;97802.84;;;23.60
24201;BMP280;2801;50.972;7.856;2023-08-17T10:55:08;97810.63;;;23.62
24201;BMP280;2801;50.972;7.856;2023-08-17T10:57:43;97811.47;;;23.55
24201;BMP280;2801;50.972;7.856;2023-08-17T11:00:23;97805.59;;;23.60
24201;BMP280;2801;50.972;7.856;2023-08-17T11:03:06;97811.47;;;23.59
24201;BMP280;2801;50.972;7.856;2023-08-17T11:05:55;97807.53;;;23.60
24201;BMP280;2801;50.972;7.856;2023-08-17T11:08:29;97811.06;;;23.60
24201;BMP280;2801;50.972;7.856;2023-08-17T11:11:13;97817.28;;;23.61
24201;BMP280;2801;50.972;7.856;2023-08-17T11:13:42;97812.19;;;23.66
24201;BMP280;2801;50.972;7.856;2023-08-17T11:16:12;97816.06;;;23.69
24201;BMP280;2801;50.972;7.856;2023-08-17T11:18:45;97814.53;;;23.68
24201;BMP280;2801;50.972;7.856;2023-08-17T11:21:13;97814.13;;;23.69
24201;BMP280;2801;50.972;7.856;2023-08-17T11:23:45;97813.34;;;23.72
24201;BMP280;2801;50.972;7.856;2023-08-17T11:26:18;97814.81;;;23.84
24201;BMP280;2801;50.972;7.856;2023-08-17T11:28:46;97813.66;;;23.85
24201;BMP280;2801;50.972;7.856;2023-08-17T11:31:14;97814.81;;;23.87
24201;BMP280;2801;50.972;7.856;2023-08-17T11:33:43;97815.56;;;23.88
24201;BMP280;2801;50.972;7.856;2023-08-17T11:36:11;97823.00;;;23.94
24201;BMP280;2801;50.972;7.856;2023-08-17T11:38:42;97821.03;;;23.98
24201;BMP280;2801;50.972;7.856;2023-08-17T11:41:10;97819.84;;;23.99
24201;BMP280;2801;50.972;7.856;2023-08-17T11:43:45;97824.13;;;24.04
24201;BMP280;2801;50.972;7.856;2023-08-17T11:46:12;97819.00;;;24.06
24201;BMP280;2801;50.972;7.856;2023-08-17T11:48:39;97822.84;;;24.15
24201;BMP280;2801;50.972;7.856;2023-08-17T11:51:06;97826.31;;;24.19
24201;BMP280;2801;50.972;7.856;2023-08-17T11:53:37;97826.31;;;24.23
24201;BMP280;2801;50.972;7.856;2023-08-17T11:56:06;97819.19;;;24.32
24201;BMP280;2801;50.972;7.856;2023-08-17T11:58:45;97812.47;;;24.37
24201;BMP280;2801;50.972;7.856;2023-08-17T12:01:13;97813.56;;;24.50
24201;BMP280;2801;50.972;7.856;2023-08-17T12:03:44;97809.16;;;24.56
24201;BMP280;2801;50.972;7.856;2023-08-17T12:06:12;97802.06;;;24.65
24201;BMP280;2801;50.972;7.856;2023-08-17T12:08:46;97798.84;;;24.74
24201;BMP280;2801;50.972;7.856;2023-08-17T12:11:16;97801.41;;;24.92
24201;BMP280;2801;50.972;7.856;2023-08-17T12:13:51;97796.50;;;25.10
24201;BMP280;2801;50.972;7.856;2023-08-17T12:16:20;97783.50;;;25.14
24201;BMP280;2801;50.972;7.856;2023-08-17T12:18:52;97788.50;;;25.22
24201;BMP280;2801;50.972;7.856;2023-08-17T12:21:21;97785.28;;;25.27
24201;BMP280;2801;50.972;7.856;2023-08-17T12:23:49;97785.66;;;25.33
24201;BMP280;2801;50.972;7.856;2023-08-17T12:26:20;97782.91;;;25.33
24201;BMP280;2801;50.972;7.856;2023-08-17T12:28:47;97788.31;;;25.40
24201;BMP280;2801;50.972;7.856;2023-08-17T12:31:20;97783.59;;;25.40
24201;BMP280;2801;50.972;7.856;2023-08-17T12:33:48;97790.25;;;25.43
24201;BMP280;2801;50.972;7.856;2023-08-17T12:36:15;97779.56;;;25.48
24201;BMP280;2801;50.972;7.856;2023-08-17T12:38:42;97774.44;;;25.50
24201;BMP280;2801;50.972;7.856;2023-08-17T12:41:11;97780.22;;;25.59
24201;BMP280;2801;50.972;7.856;2023-08-17T12:43:38;97778.84;;;25.44
24201;BMP280;2801;50.972;7.856;2023-08-17T12:46:05;97788.31;;;25.40
24201;BMP280;2801;50.972;7.856;2023-08-17T12:48:32;97780.88;;;25.40
24201;BMP280;2801;50.972;7.856;2023-08-17T12:51:02;97786.91;;;25.58
24201;BMP280;2801;50.972;7.856;2023-08-17T12:53:31;97778.31;;;25.83
24201;BMP280;2801;50.972;7.856;2023-08-17T12:55:58;97774.91;;;26.02
24201;BMP280;2801;50.972;7.856;2023-08-17T12:58:25;97773.78;;;26.22
24201;BMP280;2801;50.972;7.856;2023-08-17T13:00:52;97772.31;;;26.14
24201;BMP280;2801;50.972;7.856;2023-08-17T13:03:21;97778.72;;;26.08
24201;BMP280;2801;50.972;7.856;2023-08-17T13:05:49;97776.13;;;25.97
24201;BMP280;2801;50.972;7.856;2023-08-17T13:08:16;97774.34;;;25.84
24201;BMP280;2801;50.972;7.856;2023-08-17T13:10:43;97763.53;;;25.73
24201;BMP280;2801;50.972;7.856;2023-08-17T13:13:10;97776.63;;;25.62
24201;BMP280;2801;50.972;7.856;2023-08-17T13:15:36;97774.03;;;25.52
24201;BMP280;2801;50.972;7.856;2023-08-17T13:18:04;97770.63;;;25.44
24201;BMP280;2801;50.972;7.856;2023-08-17T13:20:31;97776.41;;;25.50
24201;BMP280;2801;50.972;7.856;2023-08-17T13:22:58;97777.69;;;25.72
24201;BMP280;2801;50.972;7.856;2023-08-17T13:25:25;97771.19;;;25.85
24201;BMP280;2801;50.972;7.856;2023-08-17T13:27:52;97771.31;;;25.78
24201;BMP280;2801;50.972;7.856;2023-08-17T13:30:19;97779.31;;;25.66
24201;BMP280;2801;50.972;7.856;2023-08-17T13:32:46;97782.75;;;25.73
24201;BMP280;2801;50.972;7.856;2023-08-17T13:35:14;97775.19;;;25.81
24201;BMP280;2801;50.972;7.856;2023-08-17T13:37:41;97775.06;;;25.88
24201;BMP280;2801;50.972;7.856;2023-08-17T13:40:09;97771.91;;;25.89
24201;BMP280;2801;50.972;7.856;2023-08-17T13:42:36;97765.03;;;26.04
24201;BMP280;2801;50.972;7.856;2023-08-17T13:45:04;97766.09;;;26.10
24201;BMP280;2801;50.972;7.856;2023-08-17T13:47:31;97761.88;;;26.06
24201;BMP280;2801;50.972;7.856;2023-08-17T13:49:58;97750.47;;;26.07
24201;BMP280;2801;50.972;7.856;2023-08-17T13:52:25;97765.03;;;26.04
24201;BMP280;2801;50.972;7.856;2023-08-17T13:54:53;97752.22;;;25.94
24201;BMP280;2801;50.972;7.856;2023-08-17T13:57:20;97753.03;;;25.91
24201;BMP280;2801;50.972;7.856;2023-08-17T13:59:47;97766.00;;;25.91
24201;BMP280;2801;50.972;7.856;2023-08-17T14:02:14;97756.63;;;25.88
24201;BMP280;2801;50.972;7.856;2023-08-17T14:04:41;97764.13;;;25.84
24201;BMP280;2801;50.972;7.856;2023-08-17T14:07:08;97754.03;;;25.78
24201;BMP280;2801;50.972;7.856;2023-08-17T14:09:34;97765.84;;;25.75
24201;BMP280;2801;50.972;7.856;2023-08-17T14:12:02;97769.16;;;25.63
24201;BMP280;2801;50.972;7.856;2023-08-17T14:14:30;97765.75;;;25.55
24201;BMP280;2801;50.972;7.856;2023-08-17T14:16:57;97766.75;;;25.38
24201;BMP280;2801;50.972;7.856;2023-08-17T14:19:24;97772.91;;;25.16
24201;BMP280;2801;50.972;7.856;2023-08-17T14:21:51;97764.78;;;25.09
24201;BMP280;2801;50.972;7.856;2023-08-17T14:24:19;97755.50;;;24.96
24201;BMP280;2801;50.972;7.856;2023-08-17T14:26:46;97747.28;;;24.96
24201;BMP280;2801;50.972;7.856;2023-08-17T14:29:13;97749.50;;;25.08
24201;BMP280;2801;50.972;7.856;2023-08-17T14:31:40;97748.72;;;25.07